Time;durP1;ratioP1;P1;durP2;ratioP2;P2;SDS_P1;SDS_P2;PMS_P1;PMS_P2;Temp;Humidity;BMP_temperature;BMP_pressure;BME280_temperature;BME280_humidity;BME280_pressure;Samples;Min_cycle;Max_cycle;Signal;HPM_P1;HPM_P2
2021/04/01 00:00:09;;;;;;;1.63;0.90;;;11.20;99.90;;;;;;20713014;28;20226;-73
2021/04/01 00:10:16;;;;;;;4.70;0.87;;;11.60;99.90;;;;;;20741344;28;20213;-74
2021/04/01 00:20:19;;;;;;;0.40;0.20;;;11.70;99.90;;;;;;20808759;28;20631;-73
2021/04/01 00:30:23;;;;;;;0.93;0.63;;;11.60;99.90;;;;;;20824986;28;20258;-74
2021/04/01 00:40:26;;;;;;;0.47;0.33;;;11.60;99.90;;;;;;20749163;28;20656;-73
2021/04/01 00:50:30;;;;;;;29.73;0.73;;;11.60;99.90;;;;;;20742012;28;20240;-72
2021/04/01 01:00:35;;;;;;;0.97;0.80;;;11.70;99.90;;;;;;20741528;28;20223;-74
2021/04/01 01:10:38;;;;;;;0.77;0.30;;;11.60;99.90;;;;;;20750533;28;20560;-72
2021/04/01 01:20:41;;;;;;;0.30;0.30;;;11.20;99.90;;;;;;20802389;28;20201;-72
2021/04/01 01:30:54;;;;;;;0.30;0.30;;;11.00;99.90;;;;;;20819472;28;20553;-73
2021/04/01 01:40:56;;;;;;;0.67;0.67;;;10.70;99.90;;;;;;20815452;28;20194;-73
2021/04/01 01:51:01;;;;;;;5.43;0.67;;;10.50;99.90;;;;;;20818605;28;20340;-73
2021/04/01 02:01:05;;;;;;;0.30;0.30;;;10.50;99.90;;;;;;20818291;28;20229;-73
2021/04/01 02:11:09;;;;;;;1.07;0.40;;;10.20;99.90;;;;;;20799656;28;20324;-72
2021/04/01 02:21:14;;;;;;;2.17;1.13;;;10.10;99.90;;;;;;20798536;28;20202;-72
2021/04/01 02:31:20;;;;;;;0.40;0.40;;;9.80;99.90;;;;;;20794663;28;20572;-72
2021/04/01 02:41:23;;;;;;;1.07;0.90;;;9.70;99.90;;;;;;20796532;28;20217;-72
2021/04/01 02:51:26;;;;;;;1.17;0.97;;;9.80;99.90;;;;;;20814475;28;21084;-72
2021/04/01 03:01:28;;;;;;;0.20;0.20;;;9.60;99.90;;;;;;20814915;28;20665;-73
2021/04/01 03:11:33;;;;;;;0.30;0.30;;;9.90;99.90;;;;;;20775906;28;20233;-73
2021/04/01 03:21:35;;;;;;;0.30;0.27;;;9.90;99.90;;;;;;20742165;28;20289;-73
2021/04/01 03:31:38;;;;;;;1.67;0.90;;;9.60;99.90;;;;;;20733326;28;20241;-73
2021/04/01 03:41:41;;;;;;;2.63;1.23;;;10.00;99.90;;;;;;20740766;28;20302;-72
2021/04/01 03:51:44;;;;;;;0.63;0.53;;;10.30;99.90;;;;;;20744920;28;20345;-72
2021/04/01 04:02:10;;;;;;;0.57;0.53;;;10.30;99.90;;;;;;20728667;28;20318;-72
2021/04/01 04:12:20;;;;;;;1.00;0.60;;;10.60;99.90;;;;;;20750825;28;20574;-73
2021/04/01 04:22:23;;;;;;;0.20;0.20;;;10.10;99.90;;;;;;20826466;28;20659;-70
2021/04/01 04:32:28;;;;;;;5.23;0.63;;;9.70;99.90;;;;;;20813590;28;20194;-72
2021/04/01 04:42:30;;;;;;;1.63;1.00;;;9.20;99.90;;;;;;20807128;28;20289;-72
2021/04/01 04:52:36;;;;;;;1.07;0.40;;;9.40;99.90;;;;;;20805777;28;20610;-72
2021/04/01 05:13:08;;;;;;;2.30;0.80;;;9.90;99.90;;;;;;20804197;28;20205;-72
2021/04/01 05:23:22;;;;;;;0.20;0.20;;;9.80;99.90;;;;;;20820767;28;20214;-74
2021/04/01 05:33:33;;;;;;;0.30;0.30;;;9.80;99.90;;;;;;20802201;28;20189;-73
2021/04/01 05:43:39;;;;;;;0.27;0.27;;;9.80;99.90;;;;;;20818958;28;20605;-73
2021/04/01 06:04:09;;;;;;;0.77;0.37;;;10.00;99.90;;;;;;20797901;28;20320;-73
2021/04/01 06:14:20;;;;;;;0.40;0.37;;;9.90;99.90;;;;;;20815854;28;20206;-72
2021/04/01 06:24:25;;;;;;;0.93;0.53;;;10.20;99.90;;;;;;20815647;28;20256;-69
2021/04/01 06:34:36;;;;;;;4.53;0.70;;;10.80;99.90;;;;;;20777373;28;20541;-74
2021/04/01 06:44:44;;;;;;;1.70;0.93;;;11.20;99.90;;;;;;20714735;28;20246;-72
2021/04/01 06:55:01;;;;;;;4.43;0.67;;;11.80;99.90;;;;;;20713960;28;20751;-72
2021/04/01 07:05:23;;;;;;;1.30;1.00;;;12.30;99.90;;;;;;20733072;28;20246;-72
2021/04/01 07:15:31;;;;;;;6.07;1.70;;;13.00;99.90;;;;;;20781226;28;20774;-72
2021/04/01 07:46:29;;;;;;;2.33;0.97;;;14.70;99.90;;;;;;20742521;28;20565;-72
2021/04/01 07:56:38;;;;;;;0.40;0.40;;;14.80;99.90;;;;;;20738865;28;20195;-71
2021/04/01 08:06:43;;;;;;;0.60;0.60;;;15.10;99.90;;;;;;20741748;28;20222;-71
2021/04/01 08:16:53;;;;;;;0.30;0.30;;;15.40;99.90;;;;;;20723860;28;20290;-73
2021/04/01 08:27:06;;;;;;;10.63;0.70;;;15.30;99.90;;;;;;20724115;28;20615;-72
2021/04/01 08:37:34;;;;;;;0.83;0.53;;;15.20;99.90;;;;;;20740648;28;20884;-72
2021/04/01 08:48:56;;;;;;;0.93;0.50;;;15.40;99.90;;;;;;20740065;28;20596;-71
2021/04/01 08:59:12;;;;;;;1.63;0.80;;;15.60;99.90;;;;;;20622302;28;20668;-75
2021/04/01 09:09:24;;;;;;;0.70;0.40;;;15.90;99.90;;;;;;20706943;28;20318;-75
2021/04/01 09:19:29;;;;;;;1.33;0.60;;;16.00;99.90;;;;;;20714497;28;20248;-74
2021/04/01 09:29:39;;;;;;;13.33;1.00;;;16.20;99.90;;;;;;20679109;28;20334;-75
2021/04/01 09:39:43;;;;;;;1.33;0.73;;;16.30;99.90;;;;;;20655082;28;20207;-71
2021/04/01 09:49:51;;;;;;;1.60;1.37;;;16.70;99.90;;;;;;20654165;28;20234;-75
2021/04/01 10:00:14;;;;;;;1.70;0.77;;;16.90;99.90;;;;;;20652719;28;20293;-72
2021/04/01 10:10:33;;;;;;;0.87;0.87;;;17.10;99.90;;;;;;20661043;28;20261;-71
2021/04/01 10:20:37;;;;;;;0.57;0.57;;;17.50;99.90;;;;;;20732867;28;20298;-72
2021/04/01 10:30:42;;;;;;;7.60;1.07;;;17.50;99.90;;;;;;20732205;28;20226;-70
2021/04/01 10:40:50;;;;;;;0.33;0.33;;;18.10;99.90;;;;;;20731114;28;20659;-69
2021/04/01 10:50:53;;;;;;;0.37;0.37;;;18.40;99.90;;;;;;20730059;28;20255;-68
2021/04/01 11:00:59;;;;;;;1.43;1.10;;;19.20;99.90;;;;;;20729391;28;20666;-72
2021/04/01 11:11:02;;;;;;;4.27;0.60;;;20.30;99.90;;;;;;20730631;28;20245;-71
2021/04/01 11:21:06;;;;;;;0.70;0.53;;;20.70;99.90;;;;;;20728377;28;20674;-71
2021/04/01 11:31:11;;;;;;;0.57;0.57;;;20.70;99.90;;;;;;20728589;28;20250;-72
2021/04/01 11:41:16;;;;;;;1.77;1.17;;;21.30;99.90;;;;;;20728590;28;20195;-71
2021/04/01 11:51:24;;;;;;;2.10;1.10;;;21.50;99.90;;;;;;20724905;28;20230;-70
2021/04/01 12:01:31;;;;;;;1.60;1.10;;;22.30;99.90;;;;;;20729181;28;20631;-71
2021/04/01 12:11:40;;;;;;;1.33;0.60;;;22.80;99.90;;;;;;20740577;28;20775;-69
2021/04/01 12:21:44;;;;;;;0.53;0.53;;;22.30;99.90;;;;;;20742040;28;20273;-72
2021/04/01 12:31:51;;;;;;;0.95;0.90;;;23.30;99.90;;;;;;20742269;28;20235;-70
2021/04/01 12:41:55;;;;;;;3.20;0.85;;;24.50;99.90;;;;;;20738635;28;20500;-72
2021/04/01 12:52:01;;;;;;;0.73;0.73;;;23.10;99.90;;;;;;20740748;28;20305;-74
2021/04/01 13:02:07;;;;;;;4.03;0.77;;;22.50;99.90;;;;;;20738580;28;20218;-66
2021/04/01 13:12:11;;;;;;;0.83;0.60;;;23.20;99.90;;;;;;20738164;28;20223;-72
2021/04/01 13:22:21;;;;;;;1.50;0.85;;;23.90;99.90;;;;;;20740857;28;20203;-69
2021/04/01 13:32:31;;;;;;;1.10;0.47;;;24.60;99.90;;;;;;20800013;28;20719;-69
2021/04/01 13:42:37;;;;;;;1.58;1.05;;;24.90;99.90;;;;;;20795306;28;20296;-66
2021/04/01 13:52:43;;;;;;;1.27;0.90;;;25.50;99.90;;;;;;20797479;28;20567;-67
2021/04/01 14:13:06;;;;;;;0.45;0.45;;;25.80;99.90;;;;;;20708249;28;20218;-67
2021/04/01 14:23:13;;;;;;;2.60;1.00;;;24.90;99.90;;;;;;20729086;28;20260;-68
2021/04/01 14:33:17;;;;;;;0.60;0.57;;;24.00;99.90;;;;;;20730442;28;20305;-68
2021/04/01 14:43:25;;;;;;;3.72;1.08;;;24.60;99.90;;;;;;20728895;28;20232;-67
2021/04/01 14:53:33;;;;;;;1.40;0.90;;;25.00;99.90;;;;;;20730804;28;20219;-68
2021/04/01 15:03:39;;;;;;;2.47;1.13;;;25.70;99.90;;;;;;20726651;28;20262;-67
2021/04/01 15:13:42;;;;;;;0.63;0.40;;;25.70;99.90;;;;;;20726840;28;20206;-68
2021/04/01 15:23:45;;;;;;;1.60;1.05;;;25.50;99.90;;;;;;20725749;28;20277;-68
2021/04/01 15:33:48;;;;;;;0.50;0.38;;;25.20;99.90;;;;;;20708527;28;20210;-68
2021/04/01 15:43:55;;;;;;;0.28;0.28;;;26.20;99.90;;;;;;20733699;28;20321;-70
2021/04/01 15:53:58;;;;;;;0.57;0.40;;;25.70;99.90;;;;;;20740877;28;20282;-68
2021/04/01 16:04:01;;;;;;;0.88;0.50;;;24.90;99.90;;;;;;20745277;28;20341;-68
2021/04/01 16:14:04;;;;;;;6.73;0.93;;;23.40;99.90;;;;;;20786636;28;20680;-69
2021/04/01 16:24:08;;;;;;;0.30;0.30;;;23.10;99.90;;;;;;20740482;28;20223;-68
2021/04/01 16:34:17;;;;;;;1.07;0.60;;;22.80;99.90;;;;;;20739148;28;20668;-70
2021/04/01 16:44:22;;;;;;;4.53;2.57;;;22.20;99.90;;;;;;20718918;28;20225;-70
2021/04/01 16:54:25;;;;;;;3.80;3.40;;;21.40;99.90;;;;;;20739708;28;20195;-71
2021/04/01 17:04:29;;;;;;;0.83;0.80;;;21.20;99.90;;;;;;20738550;28;20258;-70
2021/04/01 17:14:31;;;;;;;1.43;0.80;;;20.40;99.90;;;;;;20732287;28;20211;-71
2021/04/01 17:24:35;;;;;;;1.07;0.80;;;20.70;99.90;;;;;;20732342;28;20250;-69
2021/04/01 17:34:37;;;;;;;1.00;0.87;;;20.40;99.90;;;;;;20716647;28;20198;-70
2021/04/01 17:44:41;;;;;;;4.73;1.23;;;19.80;99.90;;;;;;20715923;28;20729;-72
2021/04/01 17:54:44;;;;;;;1.57;1.00;;;19.40;99.90;;;;;;20728429;28;20203;-73
2021/04/01 18:25:32;;;;;;;1.07;0.97;;;18.20;99.90;;;;;;20811099;28;20253;-73
2021/04/01 18:35:38;;;;;;;2.73;1.87;;;17.80;99.90;;;;;;20809436;28;20681;-72
2021/04/01 18:45:48;;;;;;;0.97;0.80;;;17.30;99.90;;;;;;20808736;28;20232;-73
2021/04/01 18:56:00;;;;;;;1.70;0.83;;;16.90;99.90;;;;;;20807890;28;20194;-72
2021/04/01 19:06:07;;;;;;;3.00;1.20;;;16.60;99.90;;;;;;20788641;28;20273;-72
2021/04/01 19:26:34;;;;;;;1.23;1.07;;;16.00;99.90;;;;;;20744281;28;20321;-74
2021/04/01 19:36:37;;;;;;;0.50;0.40;;;15.70;99.90;;;;;;20743590;28;20226;-73
2021/04/01 19:46:41;;;;;;;1.47;1.17;;;15.60;99.90;;;;;;20741823;28;20230;-74
2021/04/01 19:56:46;;;;;;;3.40;1.07;;;15.50;99.90;;;;;;20725441;28;20723;-74
2021/04/01 20:06:50;;;;;;;0.53;0.40;;;15.20;99.90;;;;;;20793358;28;20226;-74
2021/04/01 20:16:53;;;;;;;0.83;0.83;;;15.00;99.90;;;;;;20803642;28;20671;-74
2021/04/01 20:26:58;;;;;;;0.80;0.80;;;15.00;99.90;;;;;;20756973;28;20569;-74
2021/04/01 20:37:00;;;;;;;1.07;0.67;;;14.90;99.90;;;;;;20735954;28;20227;-73
2021/04/01 20:47:05;;;;;;;0.93;0.87;;;14.60;99.90;;;;;;20693358;28;20803;-74
2021/04/01 20:57:09;;;;;;;0.90;0.83;;;14.40;99.90;;;;;;20736673;28;20198;-75
2021/04/01 21:07:13;;;;;;;4.27;1.27;;;14.70;99.90;;;;;;20713188;28;20586;-71
2021/04/01 21:17:17;;;;;;;1.10;0.93;;;14.70;99.90;;;;;;20723282;28;20584;-72
2021/04/01 21:27:20;;;;;;;0.77;0.40;;;14.20;99.90;;;;;;20721686;28;20237;-72
2021/04/01 21:37:22;;;;;;;1.07;0.93;;;14.00;99.90;;;;;;20704322;28;20219;-70
2021/04/01 21:47:26;;;;;;;0.83;0.47;;;14.20;99.90;;;;;;20656932;28;20223;-69
2021/04/01 21:57:29;;;;;;;1.27;0.90;;;14.20;99.90;;;;;;20656948;28;20210;-72
2021/04/01 22:07:33;;;;;;;0.70;0.70;;;13.90;99.90;;;;;;20711580;28;20237;-72
2021/04/01 22:17:35;;;;;;;5.83;2.00;;;14.20;99.90;;;;;;20725921;28;20556;-70
2021/04/01 22:27:39;;;;;;;1.60;0.93;;;13.80;99.90;;;;;;20651770;28;20684;-70
2021/04/01 22:37:42;;;;;;;0.47;0.47;;;13.30;99.90;;;;;;20650944;28;20204;-70
2021/04/01 22:47:46;;;;;;;1.17;0.67;;;13.10;99.90;;;;;;20650050;28;20227;-70
2021/04/01 22:57:50;;;;;;;1.50;0.93;;;13.00;99.90;;;;;;20648797;28;20480;-70
2021/04/01 23:07:53;;;;;;;0.60;0.60;;;12.80;99.90;;;;;;20686106;28;731535;-70
2021/04/01 23:17:57;;;;;;;0.67;0.33;;;13.00;99.90;;;;;;20732101;28;20277;-70
2021/04/01 23:28:01;;;;;;;2.23;0.60;;;12.70;99.90;;;;;;20732430;28;20605;-70
2021/04/01 23:38:04;;;;;;;0.53;0.53;;;12.60;99.90;;;;;;20732980;28;20283;-72
2021/04/01 23:48:10;;;;;;;0.40;0.40;;;12.70;99.90;;;;;;20730134;28;20678;-71
2021/04/01 23:58:13;;;;;;;0.73;0.63;;;13.00;99.90;;;;;;20729650;28;20202;-71
